Time;durP1;ratioP1;P1;durP2;ratioP2;P2;SDS_P1;SDS_P2;PMS_P1;PMS_P2;Temp;Humidity;BMP_temperature;BMP_pressure;BME280_temperature;BME280_humidity;BME280_pressure;Samples;Min_cycle;Max_cycle;Signal;HPM_P1;HPM_P2
2021/10/10 00:01:26;;;;;;;8.50;5.90;;;3.20;99.90;;;;;;4990379;28;20194;-80
2021/10/10 00:03:52;;;;;;;9.40;5.93;;;3.10;99.90;;;;;;4991800;28;20191;-83
2021/10/10 00:06:17;;;;;;;9.53;6.20;;;3.20;99.90;;;;;;4989793;28;20214;-80
2021/10/10 00:08:43;;;;;;;8.53;6.07;;;3.20;99.90;;;;;;4990401;28;20192;-82
2021/10/10 00:11:09;;;;;;;7.87;5.90;;;3.20;99.90;;;;;;4990803;28;20183;-81
2021/10/10 00:13:34;;;;;;;8.10;5.73;;;3.10;99.90;;;;;;4989557;28;20199;-81
2021/10/10 00:16:00;;;;;;;8.80;5.73;;;3.10;99.90;;;;;;4983546;28;20208;-79
2021/10/10 00:18:26;;;;;;;7.97;5.97;;;3.20;99.90;;;;;;4987979;28;20185;-82
2021/10/10 00:20:52;;;;;;;8.33;6.00;;;3.20;99.90;;;;;;4986634;28;20185;-83
2021/10/10 00:23:18;;;;;;;7.67;5.73;;;3.10;99.90;;;;;;5006332;28;20203;-80
2021/10/10 00:25:43;;;;;;;8.00;5.50;;;3.20;99.90;;;;;;4990015;28;20208;-80
2021/10/10 00:28:09;;;;;;;10.63;5.90;;;3.10;99.90;;;;;;4990210;28;20176;-80
2021/10/10 00:30:35;;;;;;;8.33;5.80;;;3.10;99.90;;;;;;4990028;28;20678;-80
2021/10/10 00:33:01;;;;;;;7.47;5.90;;;3.20;99.90;;;;;;4989824;28;20231;-81
2021/10/10 00:35:27;;;;;;;8.80;6.00;;;3.10;99.90;;;;;;4990342;28;20239;-80
2021/10/10 00:37:53;;;;;;;7.30;4.97;;;3.10;99.90;;;;;;4989490;28;20658;-82
2021/10/10 00:40:18;;;;;;;9.57;5.97;;;3.00;99.90;;;;;;4990402;28;20235;-80
2021/10/10 00:42:44;;;;;;;8.37;5.53;;;3.10;99.90;;;;;;4989442;28;20212;-82
2021/10/10 00:45:10;;;;;;;8.77;5.93;;;3.10;99.90;;;;;;4986361;28;20914;-81
2021/10/10 00:47:37;;;;;;;8.90;5.30;;;3.00;99.90;;;;;;4988372;28;20634;-83
2021/10/10 00:50:04;;;;;;;6.97;5.50;;;2.90;99.90;;;;;;4986278;28;20591;-82
2021/10/10 00:52:30;;;;;;;8.20;5.93;;;2.80;99.90;;;;;;4986624;28;20188;-82
2021/10/10 00:54:58;;;;;;;7.73;5.27;;;2.80;99.90;;;;;;4986322;28;20250;-81
2021/10/10 00:57:24;;;;;;;8.77;5.80;;;2.80;99.90;;;;;;4985948;28;20184;-80
2021/10/10 00:59:53;;;;;;;6.57;5.27;;;2.60;99.90;;;;;;4988281;28;20688;-80
2021/10/10 01:02:18;;;;;;;8.80;6.07;;;2.70;99.90;;;;;;4988696;28;20536;-79
2021/10/10 01:04:44;;;;;;;9.30;6.03;;;2.70;99.90;;;;;;4988717;28;20295;-81
2021/10/10 01:07:10;;;;;;;6.20;5.27;;;2.70;99.90;;;;;;4991561;28;20234;-81
2021/10/10 01:09:36;;;;;;;8.50;5.90;;;2.60;99.90;;;;;;4992158;28;20586;-81
2021/10/10 01:12:04;;;;;;;7.83;5.20;;;2.70;99.90;;;;;;4993570;28;20185;-81
2021/10/10 01:14:35;;;;;;;9.00;5.80;;;2.80;99.90;;;;;;4995010;28;20286;-80
2021/10/10 01:17:01;;;;;;;8.30;5.70;;;2.70;99.90;;;;;;4991650;28;20173;-81
2021/10/10 01:19:31;;;;;;;8.43;5.90;;;2.80;99.90;;;;;;4994180;28;20207;-80
2021/10/10 01:21:58;;;;;;;7.20;5.77;;;2.80;99.90;;;;;;5009752;28;20691;-82
2021/10/10 01:24:24;;;;;;;9.97;6.63;;;2.90;99.90;;;;;;4993332;28;20204;-81
2021/10/10 01:26:51;;;;;;;7.17;5.80;;;2.80;99.90;;;;;;4990788;28;20203;-80
2021/10/10 01:29:17;;;;;;;9.50;5.87;;;2.70;99.90;;;;;;4989644;28;20212;-81
2021/10/10 01:31:42;;;;;;;10.73;6.70;;;2.60;99.90;;;;;;4991326;28;20187;-81
2021/10/10 01:34:11;;;;;;;7.57;5.90;;;2.60;99.90;;;;;;4987663;28;20188;-82
2021/10/10 01:36:37;;;;;;;11.47;5.80;;;2.50;99.90;;;;;;4990196;28;20432;-80
2021/10/10 01:39:03;;;;;;;9.57;6.67;;;2.40;99.90;;;;;;4990135;28;20777;-81
2021/10/10 01:41:29;;;;;;;7.97;5.67;;;2.50;99.90;;;;;;4990191;28;20196;-81
2021/10/10 01:43:54;;;;;;;11.60;6.43;;;2.60;99.90;;;;;;4991093;28;20204;-81
2021/10/10 01:46:20;;;;;;;9.03;5.90;;;2.50;99.90;;;;;;4990820;28;20718;-80
2021/10/10 01:48:45;;;;;;;9.50;5.50;;;2.50;99.90;;;;;;4989670;28;20621;-82
2021/10/10 01:51:13;;;;;;;8.37;6.00;;;2.40;99.90;;;;;;4988307;28;20675;-79
2021/10/10 01:53:39;;;;;;;9.87;5.63;;;2.30;99.90;;;;;;4986580;28;20605;-80
2021/10/10 01:56:05;;;;;;;9.63;6.03;;;2.30;99.90;;;;;;5002421;28;20193;-81
2021/10/10 01:58:30;;;;;;;7.73;5.87;;;2.30;99.90;;;;;;4986319;28;20262;-82
2021/10/10 02:00:57;;;;;;;8.10;6.03;;;2.30;99.90;;;;;;4987570;28;20541;-79
2021/10/10 02:03:23;;;;;;;7.53;5.73;;;2.30;99.90;;;;;;4986052;28;20255;-81
2021/10/10 02:05:50;;;;;;;9.47;6.07;;;2.20;99.90;;;;;;4986013;28;20211;-79
2021/10/10 02:08:16;;;;;;;7.50;5.70;;;2.40;99.90;;;;;;4985456;28;20181;-78
2021/10/10 02:10:42;;;;;;;8.30;5.57;;;2.30;99.90;;;;;;5001391;28;20578;-79
2021/10/10 02:13:07;;;;;;;8.73;5.80;;;2.40;99.90;;;;;;4986502;28;20188;-80
2021/10/10 02:15:33;;;;;;;8.33;6.27;;;2.40;99.90;;;;;;4985751;28;20294;-80
2021/10/10 02:17:58;;;;;;;8.57;5.80;;;2.40;99.90;;;;;;4990375;28;20188;-80
2021/10/10 02:20:24;;;;;;;7.60;5.40;;;2.40;99.90;;;;;;4989012;28;20596;-80
2021/10/10 02:22:50;;;;;;;7.93;5.60;;;2.40;99.90;;;;;;4988028;28;20216;-80
2021/10/10 02:25:15;;;;;;;7.97;6.17;;;2.30;99.90;;;;;;4990773;28;20283;-80
2021/10/10 02:27:41;;;;;;;9.77;6.47;;;2.30;99.90;;;;;;4989556;28;20184;-80
2021/10/10 02:30:07;;;;;;;9.13;6.30;;;2.30;99.90;;;;;;4989945;28;20255;-79
2021/10/10 02:32:32;;;;;;;8.23;6.10;;;2.20;99.90;;;;;;4989874;28;20615;-80
2021/10/10 02:34:58;;;;;;;10.80;6.90;;;2.10;99.90;;;;;;4988146;28;20208;-80
2021/10/10 02:37:24;;;;;;;11.83;7.57;;;2.00;99.90;;;;;;4988312;28;20216;-79
2021/10/10 02:39:51;;;;;;;11.23;7.17;;;1.90;99.90;;;;;;4988317;28;20184;-80
2021/10/10 02:42:17;;;;;;;11.57;7.70;;;1.90;99.90;;;;;;4988575;28;20260;-80
2021/10/10 02:44:43;;;;;;;10.43;7.00;;;1.90;99.90;;;;;;4986219;28;20326;-81
2021/10/10 02:47:08;;;;;;;13.40;7.10;;;1.80;99.90;;;;;;4984492;28;20184;-79
2021/10/10 02:49:34;;;;;;;8.90;6.70;;;1.90;99.90;;;;;;4986564;28;20212;-79
2021/10/10 02:52:00;;;;;;;9.63;6.80;;;1.80;99.90;;;;;;4985863;28;20216;-79
2021/10/10 02:54:25;;;;;;;9.23;6.73;;;1.80;99.90;;;;;;4986719;28;20258;-80
2021/10/10 02:56:51;;;;;;;9.43;6.77;;;1.80;99.90;;;;;;4986096;28;20172;-80
2021/10/10 02:59:16;;;;;;;8.33;6.37;;;1.80;99.90;;;;;;4986846;28;20215;-80
2021/10/10 03:01:42;;;;;;;11.47;6.37;;;1.70;99.90;;;;;;4986782;28;20186;-81
2021/10/10 03:04:08;;;;;;;9.37;6.87;;;1.70;99.90;;;;;;4985716;28;20208;-80
2021/10/10 03:06:33;;;;;;;9.40;6.30;;;1.80;99.90;;;;;;4986144;28;20304;-80
2021/10/10 03:08:59;;;;;;;9.30;6.40;;;1.80;99.90;;;;;;4985599;28;20192;-79
2021/10/10 03:11:24;;;;;;;11.53;6.93;;;1.80;99.90;;;;;;4985820;28;21223;-79
2021/10/10 03:13:50;;;;;;;13.47;6.90;;;1.80;99.90;;;;;;4986138;28;20224;-79
2021/10/10 03:16:16;;;;;;;11.57;6.93;;;1.80;99.90;;;;;;4984855;28;20208;-78
2021/10/10 03:18:41;;;;;;;8.97;6.43;;;1.80;99.90;;;;;;4985156;28;20227;-80
2021/10/10 03:21:07;;;;;;;8.43;6.10;;;1.80;99.90;;;;;;4985275;28;20219;-83
2021/10/10 03:23:32;;;;;;;10.77;6.07;;;1.90;99.90;;;;;;4987059;28;20698;-81
2021/10/10 03:25:58;;;;;;;10.07;6.23;;;1.80;99.90;;;;;;4986694;28;20212;-78
2021/10/10 03:28:23;;;;;;;10.13;6.33;;;2.00;99.90;;;;;;4985166;28;20196;-79
2021/10/10 03:30:49;;;;;;;10.30;6.60;;;1.90;99.90;;;;;;4985614;28;20222;-80
2021/10/10 03:33:15;;;;;;;9.43;6.80;;;2.10;99.90;;;;;;4985865;28;20181;-80
2021/10/10 03:35:41;;;;;;;7.80;6.23;;;2.20;99.90;;;;;;4984936;28;20567;-81
2021/10/10 03:38:06;;;;;;;9.03;6.40;;;2.20;99.90;;;;;;4984769;28;20263;-81
2021/10/10 03:40:32;;;;;;;9.53;6.93;;;2.10;99.90;;;;;;4986145;28;20196;-79
2021/10/10 03:42:57;;;;;;;8.20;5.90;;;2.10;99.90;;;;;;4984556;28;20748;-79
2021/10/10 03:45:23;;;;;;;8.67;7.03;;;2.20;99.90;;;;;;4984757;28;20230;-81
2021/10/10 03:47:49;;;;;;;10.23;6.77;;;2.00;99.90;;;;;;4987076;28;21038;-82
2021/10/10 03:50:14;;;;;;;10.13;6.33;;;1.90;99.90;;;;;;4986659;28;20691;-79
2021/10/10 03:52:42;;;;;;;9.93;6.57;;;1.90;99.90;;;;;;4986284;28;20208;-82
2021/10/10 03:55:25;;;;;;;10.47;7.03;;;1.90;99.90;;;;;;4986304;28;20205;-80
2021/10/10 03:57:51;;;;;;;8.93;6.47;;;1.70;99.90;;;;;;4986438;28;20184;-81
2021/10/10 04:00:17;;;;;;;7.40;5.57;;;1.60;99.90;;;;;;4986630;28;20214;-82
2021/10/10 04:02:42;;;;;;;10.17;6.63;;;1.50;99.90;;;;;;4986008;28;20188;-81
2021/10/10 04:05:26;;;;;;;9.77;7.20;;;1.50;99.90;;;;;;4987183;28;20283;-80
2021/10/10 04:07:51;;;;;;;9.60;6.87;;;1.50;99.90;;;;;;5002867;28;20188;-82
2021/10/10 04:10:17;;;;;;;10.00;6.47;;;1.50;99.90;;;;;;4987305;28;20216;-80
2021/10/10 04:12:43;;;;;;;10.10;7.00;;;1.40;99.90;;;;;;4987743;28;20176;-80
2021/10/10 04:15:09;;;;;;;10.03;6.93;;;1.30;99.90;;;;;;4988128;28;20287;-79
2021/10/10 04:17:36;;;;;;;10.53;7.07;;;1.30;99.90;;;;;;5003244;28;20263;-81
2021/10/10 04:20:02;;;;;;;10.03;7.20;;;1.20;99.90;;;;;;4987643;28;20184;-78
2021/10/10 04:22:28;;;;;;;12.87;6.43;;;1.30;99.90;;;;;;4986742;28;20220;-80
2021/10/10 04:24:54;;;;;;;11.83;7.97;;;1.30;99.90;;;;;;4986386;28;20242;-80
2021/10/10 04:27:19;;;;;;;9.67;7.43;;;1.40;99.90;;;;;;4986988;28;20192;-80
2021/10/10 04:29:45;;;;;;;10.23;6.63;;;1.30;99.90;;;;;;4986955;28;20220;-81
2021/10/10 04:32:10;;;;;;;10.17;7.40;;;1.30;99.90;;;;;;4986721;28;20674;-81
2021/10/10 04:34:36;;;;;;;10.53;7.13;;;1.30;99.90;;;;;;4989268;28;20815;-81
2021/10/10 04:37:01;;;;;;;11.43;7.57;;;1.30;99.90;;;;;;4989524;28;20190;-81
2021/10/10 04:39:27;;;;;;;9.83;7.70;;;1.30;99.90;;;;;;4991151;28;20203;-80
2021/10/10 04:41:52;;;;;;;11.30;7.50;;;1.30;99.90;;;;;;5005540;28;20628;-80
2021/10/10 04:44:18;;;;;;;10.97;7.97;;;1.30;99.90;;;;;;4989719;28;20237;-79
2021/10/10 04:46:44;;;;;;;10.37;7.93;;;1.60;99.90;;;;;;4990862;28;20682;-78
2021/10/10 04:49:09;;;;;;;10.30;7.70;;;1.50;99.90;;;;;;4989787;28;20219;-80
2021/10/10 04:51:35;;;;;;;12.90;7.80;;;1.40;99.90;;;;;;4989065;28;20295;-79
2021/10/10 04:54:00;;;;;;;12.00;7.10;;;1.30;99.90;;;;;;4990979;28;20274;-82
2021/10/10 04:56:26;;;;;;;12.70;8.07;;;1.20;99.90;;;;;;4989417;28;20303;-82
2021/10/10 04:58:51;;;;;;;11.17;7.77;;;1.10;99.90;;;;;;4989467;28;20188;-80
2021/10/10 05:01:17;;;;;;;9.47;7.03;;;1.00;99.90;;;;;;4990634;28;20718;-78
2021/10/10 05:03:43;;;;;;;11.40;8.00;;;0.90;99.90;;;;;;4991131;28;20192;-81
2021/10/10 05:06:09;;;;;;;10.60;7.57;;;0.80;99.90;;;;;;4989233;28;20204;-80
2021/10/10 05:08:34;;;;;;;12.80;7.63;;;0.90;99.90;;;;;;4990902;28;20222;-79
2021/10/10 05:11:00;;;;;;;12.43;8.03;;;0.90;99.90;;;;;;4988369;28;20200;-80
2021/10/10 05:13:25;;;;;;;12.07;8.87;;;1.10;99.90;;;;;;5005336;28;20749;-79
2021/10/10 05:15:51;;;;;;;11.53;7.83;;;0.90;99.90;;;;;;4988289;28;20211;-80
2021/10/10 05:18:16;;;;;;;11.80;8.50;;;0.90;99.90;;;;;;4988900;28;20189;-79
2021/10/10 05:20:42;;;;;;;11.07;7.53;;;0.80;99.90;;;;;;4990036;28;20222;-80
2021/10/10 05:23:10;;;;;;;11.07;7.90;;;0.80;99.90;;;;;;4990349;28;20191;-81
2021/10/10 05:25:37;;;;;;;12.60;8.00;;;0.80;99.90;;;;;;5004985;28;20200;-79
2021/10/10 05:28:03;;;;;;;11.20;7.70;;;0.70;99.90;;;;;;4990721;28;20271;-81
2021/10/10 05:30:29;;;;;;;13.23;8.53;;;0.70;99.90;;;;;;4988630;28;20295;-78
2021/10/10 05:32:54;;;;;;;11.73;7.90;;;0.80;99.90;;;;;;4989080;28;20189;-79
2021/10/10 05:35:20;;;;;;;13.23;8.40;;;0.80;99.90;;;;;;4987251;28;20917;-80
2021/10/10 05:37:45;;;;;;;12.57;7.77;;;0.80;99.90;;;;;;4985621;28;20180;-80
2021/10/10 05:40:11;;;;;;;12.20;8.07;;;0.90;99.90;;;;;;4984739;28;20219;-79
2021/10/10 05:42:38;;;;;;;12.47;8.30;;;0.90;99.90;;;;;;4985198;28;20655;-83
2021/10/10 05:45:04;;;;;;;10.23;8.00;;;0.80;99.90;;;;;;4985400;28;20272;-80
2021/10/10 05:47:30;;;;;;;12.97;9.03;;;0.80;99.90;;;;;;4986807;28;20192;-81
2021/10/10 05:49:55;;;;;;;12.37;8.90;;;0.80;99.90;;;;;;4985772;28;20583;-81
2021/10/10 05:52:24;;;;;;;11.67;7.93;;;0.80;99.90;;;;;;4985471;28;20207;-78
2021/10/10 05:54:50;;;;;;;13.50;8.83;;;0.90;99.90;;;;;;4987849;28;20222;-80
2021/10/10 05:57:18;;;;;;;12.83;8.57;;;0.90;99.90;;;;;;4985432;28;20275;-80
2021/10/10 05:59:46;;;;;;;13.57;8.70;;;0.90;99.90;;;;;;4985714;28;20271;-80
2021/10/10 06:02:11;;;;;;;11.67;8.40;;;1.00;99.90;;;;;;4986114;28;20567;-80
2021/10/10 06:04:39;;;;;;;11.73;8.47;;;1.10;99.90;;;;;;4985580;28;20479;-79
2021/10/10 06:07:04;;;;;;;11.87;7.67;;;1.10;99.90;;;;;;4986008;28;20955;-80
2021/10/10 06:09:30;;;;;;;13.73;8.33;;;1.00;99.90;;;;;;4985372;28;20318;-79
2021/10/10 06:11:56;;;;;;;13.60;8.43;;;1.10;99.90;;;;;;4985961;28;20191;-80
2021/10/10 06:14:21;;;;;;;14.10;9.17;;;1.20;99.90;;;;;;4987657;28;20179;-81
2021/10/10 06:16:47;;;;;;;16.67;8.70;;;1.10;99.90;;;;;;4987130;28;20177;-81
2021/10/10 06:19:13;;;;;;;10.80;8.23;;;1.30;99.90;;;;;;4988750;28;20591;-81
2021/10/10 06:21:38;;;;;;;12.23;9.27;;;1.30;99.90;;;;;;4992227;28;20184;-80
2021/10/10 06:24:04;;;;;;;11.60;8.67;;;1.40;99.90;;;;;;4992263;28;20207;-80
2021/10/10 06:26:29;;;;;;;13.17;9.00;;;1.40;99.90;;;;;;4990540;28;20199;-80
2021/10/10 06:28:55;;;;;;;13.10;8.47;;;1.50;99.90;;;;;;4996564;28;20566;-80
2021/10/10 06:31:21;;;;;;;13.30;8.73;;;1.60;99.90;;;;;;4987709;28;20188;-80
2021/10/10 06:33:46;;;;;;;11.63;8.80;;;1.60;99.90;;;;;;4986780;28;20296;-81
2021/10/10 06:36:13;;;;;;;11.53;8.23;;;1.70;99.90;;;;;;4987089;28;20211;-81
2021/10/10 06:38:39;;;;;;;12.50;9.10;;;1.70;99.90;;;;;;4986404;28;20267;-81
2021/10/10 06:41:05;;;;;;;11.97;8.97;;;1.90;99.90;;;;;;4986737;28;20622;-81
2021/10/10 06:43:30;;;;;;;14.70;9.30;;;2.10;99.90;;;;;;4987093;28;20204;-80
2021/10/10 06:45:56;;;;;;;13.73;9.43;;;2.10;99.90;;;;;;4984762;28;20219;-79
2021/10/10 06:48:21;;;;;;;14.73;9.00;;;2.20;99.90;;;;;;4986127;28;20192;-80
2021/10/10 06:50:47;;;;;;;13.83;9.20;;;2.30;99.90;;;;;;4986007;28;20211;-79
2021/10/10 06:53:13;;;;;;;14.03;8.90;;;2.40;99.90;;;;;;4986556;28;20564;-81
2021/10/10 06:55:38;;;;;;;13.83;9.40;;;2.50;99.90;;;;;;4987682;28;20262;-81
2021/10/10 06:58:04;;;;;;;13.67;9.70;;;2.60;99.90;;;;;;4986613;28;20191;-79
2021/10/10 07:00:29;;;;;;;13.33;8.77;;;2.60;99.90;;;;;;4987505;28;20199;-81
2021/10/10 07:02:55;;;;;;;11.80;8.70;;;2.70;99.90;;;;;;4988055;28;20258;-81
2021/10/10 07:05:20;;;;;;;11.70;8.57;;;2.80;99.90;;;;;;4985193;28;20258;-83
2021/10/10 07:07:46;;;;;;;13.27;8.97;;;2.90;99.90;;;;;;4981574;28;20192;-81
2021/10/10 07:10:12;;;;;;;15.57;9.50;;;3.10;99.90;;;;;;4982598;28;20314;-82
2021/10/10 07:12:38;;;;;;;11.07;8.63;;;3.10;99.90;;;;;;4985167;28;20192;-81
2021/10/10 07:15:07;;;;;;;12.37;9.00;;;3.20;99.90;;;;;;4983670;28;20208;-80
2021/10/10 07:17:32;;;;;;;12.37;9.27;;;3.30;99.90;;;;;;4985357;28;20614;-80
2021/10/10 07:20:06;;;;;;;13.00;8.50;;;3.40;99.90;;;;;;4983281;28;20383;-81
2021/10/10 07:25:18;;;;;;;11.03;8.53;;;3.70;99.90;;;;;;4964426;28;20224;-78
2021/10/10 07:27:44;;;;;;;15.00;9.30;;;3.90;99.90;;;;;;4984370;28;20184;-79
2021/10/10 07:30:13;;;;;;;13.60;9.20;;;4.00;99.90;;;;;;4983720;28;20251;-81
2021/10/10 07:32:39;;;;;;;10.97;8.53;;;4.10;99.90;;;;;;4984112;28;20187;-80
2021/10/10 07:35:07;;;;;;;12.33;9.50;;;4.20;99.90;;;;;;4984827;28;20198;-79
2021/10/10 07:37:33;;;;;;;12.10;8.93;;;4.40;99.90;;;;;;4984962;28;20177;-82
2021/10/10 07:39:58;;;;;;;13.80;9.17;;;4.60;99.90;;;;;;4984911;28;20186;-82
2021/10/10 07:42:24;;;;;;;13.10;9.40;;;4.70;99.90;;;;;;4984374;28;20200;-82
2021/10/10 07:44:52;;;;;;;11.17;8.93;;;4.90;99.90;;;;;;4984388;28;20250;-80
2021/10/10 07:49:54;;;;;;;13.07;8.73;;;5.10;99.90;;;;;;4986423;28;21043;-83
2021/10/10 07:52:20;;;;;;;11.60;8.20;;;5.20;99.90;;;;;;4983415;28;20666;-81
2021/10/10 07:54:46;;;;;;;14.13;8.63;;;5.30;99.90;;;;;;4999920;28;20697;-81
2021/10/10 07:57:12;;;;;;;12.37;8.40;;;5.40;99.90;;;;;;4984113;28;20270;-82
2021/10/10 07:59:38;;;;;;;12.53;9.10;;;5.60;99.90;;;;;;4983070;28;21227;-80
2021/10/10 08:02:04;;;;;;;13.10;8.27;;;5.70;99.90;;;;;;4983660;28;20180;-80
2021/10/10 08:04:30;;;;;;;14.50;9.40;;;5.90;99.90;;;;;;4985450;28;20204;-80
2021/10/10 08:06:56;;;;;;;11.13;8.50;;;6.00;99.90;;;;;;4983954;28;20176;-80
2021/10/10 08:09:23;;;;;;;12.10;8.50;;;6.10;99.90;;;;;;4989643;28;20199;-80
2021/10/10 08:11:49;;;;;;;10.63;7.80;;;6.20;99.90;;;;;;4987230;28;20184;-79
2021/10/10 08:14:15;;;;;;;11.57;8.83;;;6.30;99.90;;;;;;4988349;28;20271;-80
2021/10/10 08:16:42;;;;;;;12.07;8.50;;;6.40;99.90;;;;;;4986400;28;20287;-82
2021/10/10 08:19:08;;;;;;;12.93;8.23;;;6.50;99.90;;;;;;5001970;28;20187;-81
2021/10/10 08:21:34;;;;;;;11.03;8.53;;;6.70;99.90;;;;;;5005274;28;20269;-82
2021/10/10 08:24:02;;;;;;;13.50;8.43;;;6.80;99.90;;;;;;5003117;28;20184;-82
2021/10/10 08:26:28;;;;;;;11.70;8.63;;;7.00;99.90;;;;;;4988611;28;20200;-81
2021/10/10 08:28:55;;;;;;;11.00;8.20;;;7.10;99.90;;;;;;4985526;28;20215;-82
2021/10/10 08:31:20;;;;;;;10.33;8.03;;;7.20;99.90;;;;;;4987947;28;20200;-81
2021/10/10 08:33:46;;;;;;;10.73;7.87;;;7.30;99.90;;;;;;4988547;28;20219;-82
2021/10/10 08:36:12;;;;;;;13.60;8.33;;;7.40;99.90;;;;;;4989822;28;20258;-83
2021/10/10 08:38:37;;;;;;;9.53;7.50;;;7.50;99.90;;;;;;4985708;28;20192;-81
2021/10/10 08:41:05;;;;;;;10.67;7.73;;;7.50;99.90;;;;;;4985267;28;20267;-81
2021/10/10 08:43:32;;;;;;;12.00;8.37;;;7.60;99.90;;;;;;4992518;28;20196;-81
2021/10/10 08:46:02;;;;;;;11.53;8.30;;;7.70;99.90;;;;;;5001957;28;20272;-81
2021/10/10 08:48:28;;;;;;;10.90;7.70;;;7.80;99.90;;;;;;5011547;28;20203;-83
2021/10/10 08:50:55;;;;;;;11.00;7.73;;;7.90;99.90;;;;;;4994339;28;20216;-83
2021/10/10 08:53:22;;;;;;;9.17;7.53;;;8.00;99.90;;;;;;4994700;28;20183;-83
2021/10/10 08:55:48;;;;;;;10.43;7.20;;;8.20;99.90;;;;;;4992765;28;20196;-83
2021/10/10 08:58:21;;;;;;;10.80;7.57;;;8.30;99.90;;;;;;4994724;28;20671;-83
2021/10/10 09:01:11;;;;;;;10.10;7.77;;;8.40;99.90;;;;;;4993411;28;20191;-83
2021/10/10 09:03:37;;;;;;;10.13;7.10;;;8.50;99.90;;;;;;5009309;28;20784;-83
2021/10/10 09:06:02;;;;;;;10.63;7.47;;;8.50;99.90;;;;;;4993313;28;20239;-82
2021/10/10 09:08:28;;;;;;;11.47;7.00;;;8.60;99.90;;;;;;4990107;28;20252;-82
2021/10/10 09:11:01;;;;;;;8.73;7.17;;;8.70;99.90;;;;;;4992243;28;20261;-83
2021/10/10 09:13:40;;;;;;;10.23;6.87;;;8.90;99.90;;;;;;4990089;28;20188;-82
2021/10/10 09:16:08;;;;;;;9.60;6.77;;;8.90;99.90;;;;;;4990458;28;20685;-81
2021/10/10 09:18:38;;;;;;;9.80;6.87;;;9.10;99.90;;;;;;4990901;28;20207;-84
2021/10/10 09:21:23;;;;;;;12.33;6.67;;;9.10;99.90;;;;;;4991469;28;20264;-85
2021/10/10 09:23:51;;;;;;;8.40;6.43;;;9.20;99.90;;;;;;4990594;28;20191;-85
2021/10/10 09:26:18;;;;;;;9.23;7.13;;;9.40;99.90;;;;;;4990980;28;20219;-86
2021/10/10 09:28:44;;;;;;;9.00;6.67;;;9.40;99.90;;;;;;4989329;28;20201;-86
2021/10/10 09:31:11;;;;;;;10.00;7.27;;;9.50;99.90;;;;;;4989615;28;20216;-86
2021/10/10 09:33:46;;;;;;;9.47;6.77;;;9.50;99.90;;;;;;4990381;28;20187;-86
2021/10/10 09:36:21;;;;;;;8.80;6.77;;;9.70;99.90;;;;;;5005399;28;20289;-86
2021/10/10 09:44:18;;;;;;;7.83;6.57;;;10.10;99.90;;;;;;4988663;28;20283;-85
2021/10/10 09:46:46;;;;;;;8.83;6.57;;;10.20;99.90;;;;;;4987444;28;20259;-85
2021/10/10 09:49:24;;;;;;;8.40;6.43;;;10.30;99.90;;;;;;4985606;28;20187;-85
2021/10/10 09:51:50;;;;;;;10.10;6.13;;;10.40;99.90;;;;;;4984947;28;20194;-81
2021/10/10 09:54:16;;;;;;;9.63;6.83;;;10.60;99.90;;;;;;4984339;28;20188;-85
2021/10/10 09:57:02;;;;;;;8.17;5.53;;;10.70;99.90;;;;;;4984539;28;20184;-85
2021/10/10 09:59:28;;;;;;;9.23;6.33;;;10.60;99.90;;;;;;4988329;28;20186;-85
2021/10/10 10:01:53;;;;;;;8.30;6.50;;;10.80;99.90;;;;;;4989404;28;20184;-86
2021/10/10 10:04:19;;;;;;;10.33;7.07;;;11.00;99.90;;;;;;4989347;28;20253;-85
2021/10/10 10:06:44;;;;;;;6.33;5.70;;;11.00;99.90;;;;;;4988696;28;20203;-84
2021/10/10 10:09:12;;;;;;;7.67;5.77;;;11.10;99.90;;;;;;4990411;28;20189;-86
2021/10/10 10:11:42;;;;;;;7.47;6.30;;;11.20;99.90;;;;;;4988545;28;20184;-86
2021/10/10 10:14:17;;;;;;;9.07;6.73;;;11.30;99.90;;;;;;4987646;28;20203;-86
2021/10/10 10:16:43;;;;;;;8.27;6.33;;;11.40;99.90;;;;;;4989181;28;20642;-85
2021/10/10 10:19:11;;;;;;;8.13;6.47;;;11.50;99.90;;;;;;5004299;28;20243;-85
2021/10/10 10:21:38;;;;;;;9.43;6.45;;;11.60;99.90;;;;;;4988119;28;20739;-85
2021/10/10 10:24:09;;;;;;;8.43;6.40;;;11.70;99.90;;;;;;4990569;28;20742;-85
2021/10/10 10:26:35;;;;;;;7.65;5.85;;;11.70;99.90;;;;;;4990272;28;20184;-85
2021/10/10 10:29:11;;;;;;;9.07;5.95;;;11.90;99.90;;;;;;4989479;28;20183;-86
2021/10/10 10:31:36;;;;;;;7.30;5.55;;;12.00;99.90;;;;;;4986485;28;20191;-84
2021/10/10 10:34:31;;;;;;;10.82;6.35;;;12.10;99.90;;;;;;4987928;28;20180;-86
2021/10/10 10:37:09;;;;;;;8.00;6.30;;;12.20;99.90;;;;;;4987806;28;20187;-84
2021/10/10 10:39:49;;;;;;;7.78;5.75;;;12.20;99.90;;;;;;4988745;28;20702;-84
2021/10/10 10:42:24;;;;;;;9.50;7.13;;;12.40;99.90;;;;;;4988228;28;20451;-86
2021/10/10 10:44:51;;;;;;;7.55;5.68;;;12.40;99.90;;;;;;5003860;28;20230;-85
2021/10/10 10:47:27;;;;;;;8.63;6.30;;;12.50;99.90;;;;;;4987263;28;20558;-85
2021/10/10 10:49:56;;;;;;;9.68;6.10;;;12.60;99.90;;;;;;4985603;28;20501;-84
2021/10/10 10:52:26;;;;;;;8.35;6.20;;;12.70;99.90;;;;;;4989376;28;20238;-82
2021/10/10 10:54:53;;;;;;;6.68;5.90;;;12.70;99.90;;;;;;4986368;28;20219;-84
2021/10/10 10:57:36;;;;;;;7.97;6.40;;;12.70;99.90;;;;;;4986392;28;20195;-84
2021/10/10 11:00:04;;;;;;;7.18;5.78;;;12.80;99.90;;;;;;4983622;28;20564;-85
2021/10/10 11:02:49;;;;;;;8.45;6.50;;;12.90;99.90;;;;;;5002535;28;20224;-83
2021/10/10 11:05:40;;;;;;;7.88;5.57;;;13.10;99.90;;;;;;4986526;28;20255;-84
2021/10/10 11:08:09;;;;;;;6.57;5.85;;;13.10;99.90;;;;;;5002801;28;20196;-84
2021/10/10 11:10:37;;;;;;;7.35;6.30;;;13.10;99.90;;;;;;4986407;28;20303;-83
2021/10/10 11:13:06;;;;;;;8.10;6.38;;;13.10;99.90;;;;;;4986079;28;20215;-85
2021/10/10 11:15:51;;;;;;;8.98;6.82;;;13.00;99.90;;;;;;5003070;28;20242;-85
2021/10/10 11:18:18;;;;;;;9.02;6.50;;;13.10;99.90;;;;;;4987702;28;20184;-85
2021/10/10 11:21:03;;;;;;;9.80;6.30;;;13.20;99.90;;;;;;4987296;28;20773;-86
2021/10/10 11:23:29;;;;;;;8.57;6.22;;;13.40;99.90;;;;;;5003384;28;20193;-84
2021/10/10 11:25:59;;;;;;;8.27;5.82;;;13.50;99.90;;;;;;4988956;28;20208;-85
2021/10/10 11:28:44;;;;;;;8.40;6.47;;;13.70;99.90;;;;;;4987480;28;20192;-85
2021/10/10 11:31:31;;;;;;;8.65;6.28;;;13.70;99.90;;;;;;4986393;28;20238;-83
2021/10/10 11:34:03;;;;;;;6.25;5.32;;;13.70;99.90;;;;;;4987031;28;20334;-83
2021/10/10 11:36:46;;;;;;;8.63;6.45;;;13.70;99.90;;;;;;4986669;28;20230;-85
2021/10/10 11:39:12;;;;;;;8.73;6.57;;;13.60;99.90;;;;;;4986934;28;20191;-86
2021/10/10 11:41:45;;;;;;;8.55;5.78;;;13.50;99.90;;;;;;4985253;28;20176;-82
2021/10/10 11:44:19;;;;;;;7.28;6.10;;;13.50;99.90;;;;;;5001171;28;20266;-84
2021/10/10 11:46:50;;;;;;;8.63;6.00;;;13.50;99.90;;;;;;4985573;28;20187;-80
2021/10/10 11:49:38;;;;;;;9.25;6.20;;;13.70;99.90;;;;;;4985260;28;20222;-81
2021/10/10 11:52:15;;;;;;;7.32;5.40;;;13.90;99.90;;;;;;5001808;28;20562;-80
2021/10/10 11:54:43;;;;;;;8.13;5.22;;;14.00;99.90;;;;;;4986460;28;20206;-80
2021/10/10 11:57:10;;;;;;;6.80;5.70;;;14.10;99.90;;;;;;4987265;28;20176;-82
2021/10/10 11:59:56;;;;;;;5.45;4.88;;;14.20;99.90;;;;;;4985374;28;20196;-83
2021/10/10 12:02:24;;;;;;;7.25;5.07;;;14.20;99.90;;;;;;4998891;28;20210;-83
2021/10/10 12:05:01;;;;;;;11.07;5.60;;;14.20;99.90;;;;;;4985229;28;20681;-82
2021/10/10 12:07:31;;;;;;;7.78;4.57;;;14.30;99.90;;;;;;4984005;28;20219;-85
2021/10/10 12:09:57;;;;;;;7.40;4.72;;;14.20;99.90;;;;;;4982417;28;20705;-85
2021/10/10 12:12:22;;;;;;;6.57;4.57;;;14.20;99.90;;;;;;4984402;28;20188;-85
2021/10/10 12:14:55;;;;;;;6.25;5.05;;;14.30;99.90;;;;;;4983636;28;20215;-83
2021/10/10 12:17:39;;;;;;;6.35;4.40;;;14.40;99.90;;;;;;4985665;28;20575;-83
2021/10/10 12:20:26;;;;;;;5.57;4.07;;;14.30;99.90;;;;;;4985540;28;20188;-84
2021/10/10 12:23:00;;;;;;;6.97;4.70;;;14.40;99.90;;;;;;4979192;28;20191;-82
2021/10/10 12:25:29;;;;;;;5.10;4.45;;;14.50;99.90;;;;;;4996301;28;20253;-82
2021/10/10 12:27:59;;;;;;;8.23;4.60;;;14.70;99.90;;;;;;4984620;28;20191;-82
2021/10/10 12:30:29;;;;;;;7.25;4.40;;;14.80;99.90;;;;;;4999559;28;20204;-81
2021/10/10 12:32:54;;;;;;;5.40;4.32;;;14.80;99.90;;;;;;4981858;28;20610;-81
2021/10/10 12:35:20;;;;;;;8.55;4.03;;;14.90;99.90;;;;;;4983254;28;20290;-79
2021/10/10 12:37:57;;;;;;;4.47;3.70;;;15.00;99.90;;;;;;4983537;28;20181;-80
2021/10/10 12:40:33;;;;;;;6.10;4.72;;;15.00;99.90;;;;;;4983370;28;20180;-80
2021/10/10 12:42:59;;;;;;;5.30;4.22;;;15.00;99.90;;;;;;4982336;28;20239;-80
2021/10/10 12:48:09;;;;;;;6.25;4.20;;;15.10;99.90;;;;;;4986147;28;20326;-79
2021/10/10 12:50:51;;;;;;;6.25;4.70;;;15.10;99.90;;;;;;4983457;28;20226;-81
2021/10/10 12:53:23;;;;;;;6.32;4.50;;;15.10;99.90;;;;;;4983849;28;20239;-81
2021/10/10 12:56:13;;;;;;;7.25;4.68;;;15.00;99.90;;;;;;4989686;28;20399;-78
2021/10/10 12:58:56;;;;;;;5.70;3.92;;;14.90;99.90;;;;;;4987504;28;20651;-80
2021/10/10 13:01:24;;;;;;;7.90;4.20;;;14.90;99.90;;;;;;4987031;28;20235;-78
2021/10/10 13:03:49;;;;;;;6.57;4.97;;;15.00;99.90;;;;;;4987052;28;20295;-81
2021/10/10 13:06:17;;;;;;;5.53;4.40;;;14.90;99.90;;;;;;4987550;28;20276;-77
2021/10/10 13:08:58;;;;;;;5.75;4.68;;;14.90;99.90;;;;;;4989162;28;20184;-82